Time;durP1;ratioP1;P1;durP2;ratioP2;P2;SDS_P1;SDS_P2;PMS_P1;PMS_P2;Temp;Humidity;BMP_temperature;BMP_pressure;BME280_temperature;BME280_humidity;BME280_pressure;Samples;Min_cycle;Max_cycle;Signal;HPM_P1;HPM_P2
2023/05/29 00:01:40;;;;;;;11.35;2.47;;;9.20;99.90;;;;;;5028652;28;20041;-80
2023/05/29 00:04:06;;;;;;;12.98;2.78;;;9.20;99.90;;;;;;5031382;28;20053;-80
2023/05/29 00:06:31;;;;;;;7.68;2.05;;;9.20;99.90;;;;;;5030314;28;20041;-81
2023/05/29 00:08:57;;;;;;;19.83;2.63;;;9.10;99.90;;;;;;5033774;28;20036;-80
2023/05/29 00:11:23;;;;;;;16.35;2.65;;;9.10;99.90;;;;;;5030435;28;20128;-81
2023/05/29 00:13:48;;;;;;;23.00;3.05;;;9.10;99.90;;;;;;5032462;28;20046;-81
2023/05/29 00:16:14;;;;;;;25.58;3.00;;;9.00;99.90;;;;;;5031662;28;20467;-80
2023/05/29 00:18:45;;;;;;;19.00;2.78;;;9.00;99.90;;;;;;5032681;28;20041;-81
2023/05/29 00:21:11;;;;;;;9.75;2.13;;;9.00;99.90;;;;;;5030507;28;20458;-81
2023/05/29 00:23:36;;;;;;;16.73;2.85;;;8.90;99.90;;;;;;5031863;28;20056;-81
2023/05/29 00:26:02;;;;;;;22.70;3.10;;;9.00;99.90;;;;;;5031789;28;20033;-80
2023/05/29 00:28:28;;;;;;;18.75;3.28;;;8.90;99.90;;;;;;5029871;28;20148;-81
2023/05/29 00:30:53;;;;;;;14.95;2.47;;;8.90;99.90;;;;;;5031487;28;20168;-81
2023/05/29 00:33:20;;;;;;;15.50;2.80;;;8.90;99.90;;;;;;5029160;28;20042;-80
2023/05/29 00:35:45;;;;;;;18.70;3.45;;;8.90;99.90;;;;;;5032789;28;20045;-81
2023/05/29 00:38:11;;;;;;;18.90;3.58;;;8.90;99.90;;;;;;5029946;28;20087;-81
2023/05/29 00:40:37;;;;;;;18.65;4.40;;;8.90;99.90;;;;;;5030616;28;20844;-81
2023/05/29 00:43:02;;;;;;;17.88;2.60;;;8.90;99.90;;;;;;5030664;28;20034;-81
2023/05/29 00:45:28;;;;;;;22.90;3.78;;;8.90;99.90;;;;;;5032307;28;20064;-81
2023/05/29 00:47:53;;;;;;;19.83;2.65;;;8.80;99.90;;;;;;5030795;28;20156;-81
2023/05/29 00:50:21;;;;;;;17.02;2.33;;;8.90;99.90;;;;;;5035433;28;20040;-81
2023/05/29 00:52:47;;;;;;;11.85;3.13;;;8.80;99.90;;;;;;5034519;28;20088;-80
2023/05/29 00:55:14;;;;;;;15.98;3.35;;;8.90;99.90;;;;;;5033895;28;20072;-81
2023/05/29 00:57:40;;;;;;;16.70;2.60;;;8.80;99.90;;;;;;5035760;28;20091;-80
2023/05/29 01:00:13;;;;;;;13.32;1.75;;;8.80;99.90;;;;;;5035818;28;20033;-80
2023/05/29 01:02:40;;;;;;;11.55;2.17;;;8.80;99.90;;;;;;5035600;28;20033;-80
2023/05/29 01:05:09;;;;;;;14.85;2.08;;;8.70;99.90;;;;;;5034071;28;20056;-81
2023/05/29 01:07:35;;;;;;;12.00;1.73;;;8.70;99.90;;;;;;5033396;28;20045;-81
2023/05/29 01:10:01;;;;;;;19.52;3.13;;;8.70;99.90;;;;;;5035284;28;20393;-80
2023/05/29 01:12:37;;;;;;;14.23;2.30;;;8.70;99.90;;;;;;5033715;28;20052;-80
2023/05/29 01:15:28;;;;;;;13.63;2.45;;;8.70;99.90;;;;;;5033701;28;20050;-81
2023/05/29 01:18:28;;;;;;;17.27;2.20;;;8.90;99.90;;;;;;5032636;28;20699;-80
2023/05/29 01:21:08;;;;;;;20.23;2.53;;;8.70;99.90;;;;;;5031362;28;20041;-81
2023/05/29 01:23:54;;;;;;;9.55;2.10;;;8.60;99.90;;;;;;5034300;28;20038;-80
2023/05/29 01:26:51;;;;;;;12.05;2.50;;;8.60;99.90;;;;;;5032928;28;20083;-80
2023/05/29 01:29:23;;;;;;;14.80;2.35;;;8.60;99.90;;;;;;5034122;28;20103;-81
2023/05/29 01:31:49;;;;;;;13.85;2.95;;;8.50;99.90;;;;;;5034950;28;20049;-80
2023/05/29 01:34:15;;;;;;;14.77;2.83;;;8.50;99.90;;;;;;5033074;28;20399;-81
2023/05/29 01:36:41;;;;;;;15.50;2.63;;;8.50;99.90;;;;;;5033006;28;20041;-81
2023/05/29 01:39:08;;;;;;;17.80;3.47;;;8.50;99.90;;;;;;5033991;28;20049;-81
2023/05/29 01:41:34;;;;;;;10.70;1.92;;;8.50;99.90;;;;;;5032379;28;20050;-80
2023/05/29 01:44:08;;;;;;;16.45;2.58;;;8.50;99.90;;;;;;5033122;28;20049;-81
2023/05/29 01:46:35;;;;;;;20.33;2.38;;;8.50;99.90;;;;;;5033071;28;20079;-81
2023/05/29 01:49:01;;;;;;;12.38;1.73;;;8.40;99.90;;;;;;5033966;28;20360;-81
2023/05/29 01:51:27;;;;;;;13.10;2.28;;;8.50;99.90;;;;;;5033569;28;20172;-81
2023/05/29 01:53:52;;;;;;;11.32;2.45;;;8.40;99.90;;;;;;5033290;28;20049;-81
2023/05/29 01:56:18;;;;;;;11.75;2.00;;;8.50;99.90;;;;;;5034438;28;20034;-81
2023/05/29 01:58:45;;;;;;;16.50;2.95;;;8.40;99.90;;;;;;5030891;28;20530;-80
2023/05/29 02:01:10;;;;;;;17.70;2.70;;;8.30;99.90;;;;;;5026093;28;20037;-80
2023/05/29 02:03:36;;;;;;;20.10;3.10;;;8.40;99.90;;;;;;5032009;28;20514;-80
2023/05/29 02:06:02;;;;;;;10.57;1.85;;;8.40;99.90;;;;;;5034408;28;20095;-81
2023/05/29 02:08:27;;;;;;;12.82;1.73;;;8.40;99.90;;;;;;5031826;28;20959;-81
2023/05/29 02:10:53;;;;;;;17.10;2.80;;;8.30;99.90;;;;;;5029686;28;20111;-81
2023/05/29 02:13:19;;;;;;;17.92;3.03;;;8.30;99.90;;;;;;5031553;28;20120;-80
2023/05/29 02:15:44;;;;;;;15.52;2.55;;;8.40;99.90;;;;;;5031168;28;20034;-80
2023/05/29 02:18:17;;;;;;;16.30;3.03;;;8.40;99.90;;;;;;5032489;28;20036;-80
2023/05/29 02:20:42;;;;;;;17.00;2.97;;;8.40;99.90;;;;;;5031713;28;20037;-79
2023/05/29 02:23:11;;;;;;;16.05;1.55;;;8.30;99.90;;;;;;5031577;28;20044;-81
2023/05/29 02:25:37;;;;;;;13.63;2.05;;;8.30;99.90;;;;;;5031586;28;20128;-80
2023/05/29 02:28:03;;;;;;;13.65;2.22;;;8.30;99.90;;;;;;5031941;28;20144;-80
2023/05/29 02:30:29;;;;;;;9.40;2.30;;;8.30;99.90;;;;;;5031655;28;20053;-80
2023/05/29 02:32:55;;;;;;;22.30;3.38;;;8.20;99.90;;;;;;5031863;28;20496;-80
2023/05/29 02:35:22;;;;;;;13.90;2.67;;;8.20;99.90;;;;;;5032165;28;20060;-80
2023/05/29 02:37:49;;;;;;;13.80;2.08;;;8.20;99.90;;;;;;5048180;28;20057;-80
2023/05/29 02:40:14;;;;;;;13.90;1.58;;;8.20;99.90;;;;;;5033811;28;20124;-81
2023/05/29 02:42:40;;;;;;;15.57;2.58;;;8.20;99.90;;;;;;5031502;28;20575;-81
2023/05/29 02:45:06;;;;;;;17.58;2.80;;;8.10;99.90;;;;;;5035331;28;20400;-80
2023/05/29 02:47:32;;;;;;;15.48;2.88;;;8.10;99.90;;;;;;5029881;28;20042;-80
2023/05/29 02:49:57;;;;;;;16.40;2.88;;;8.10;99.90;;;;;;5034273;28;20044;-81
2023/05/29 02:52:23;;;;;;;18.75;2.13;;;8.10;99.90;;;;;;5034282;28;20564;-80
2023/05/29 02:54:49;;;;;;;11.93;2.08;;;8.00;99.90;;;;;;5031074;28;20257;-81
2023/05/29 02:57:15;;;;;;;13.75;2.22;;;8.00;99.90;;;;;;5033648;28;20045;-81
2023/05/29 02:59:41;;;;;;;14.80;2.63;;;8.10;99.90;;;;;;5030677;28;20041;-81
2023/05/29 03:02:07;;;;;;;16.52;2.08;;;8.00;99.90;;;;;;5033937;28;20091;-80
2023/05/29 03:04:32;;;;;;;17.05;2.63;;;8.00;99.90;;;;;;5023903;28;20045;-79
2023/05/29 03:06:58;;;;;;;21.55;2.97;;;8.00;99.90;;;;;;5032729;28;20101;-80
2023/05/29 03:09:23;;;;;;;8.45;1.65;;;8.00;99.90;;;;;;5033371;28;20045;-81
2023/05/29 03:11:50;;;;;;;11.38;2.03;;;8.00;99.90;;;;;;5033809;28;20041;-80
2023/05/29 03:14:16;;;;;;;13.95;2.58;;;7.90;99.90;;;;;;5031215;28;20067;-80
2023/05/29 03:16:43;;;;;;;10.30;1.77;;;7.90;99.90;;;;;;5033359;28;20045;-81
2023/05/29 03:19:08;;;;;;;16.83;2.33;;;7.90;99.90;;;;;;5032156;28;20053;-81
2023/05/29 03:21:35;;;;;;;15.57;2.70;;;7.90;99.90;;;;;;5032708;28;20037;-80
2023/05/29 03:24:02;;;;;;;11.57;2.00;;;7.80;99.90;;;;;;5033602;28;20048;-79
2023/05/29 03:26:28;;;;;;;14.43;2.45;;;7.80;99.90;;;;;;5032009;28;20049;-80
2023/05/29 03:28:54;;;;;;;16.65;2.70;;;7.80;99.90;;;;;;5031978;28;20068;-81
2023/05/29 03:31:19;;;;;;;21.83;2.75;;;7.80;99.90;;;;;;5029229;28;20787;-80
2023/05/29 03:33:45;;;;;;;14.57;2.50;;;7.80;99.90;;;;;;5029704;28;20037;-80
2023/05/29 03:36:11;;;;;;;14.90;2.85;;;7.80;99.90;;;;;;5032848;28;20506;-81
2023/05/29 03:38:37;;;;;;;18.00;3.13;;;7.80;99.90;;;;;;5033124;28;20042;-80
2023/05/29 03:41:02;;;;;;;16.88;2.33;;;7.80;99.90;;;;;;5032049;28;20037;-81
2023/05/29 03:43:28;;;;;;;11.52;1.50;;;7.70;99.90;;;;;;5034498;28;20049;-80
2023/05/29 03:45:53;;;;;;;14.00;3.05;;;7.80;99.90;;;;;;5031975;28;20061;-80
2023/05/29 03:48:19;;;;;;;13.35;2.63;;;7.70;99.90;;;;;;5029043;28;20053;-81
2023/05/29 03:50:46;;;;;;;13.90;1.85;;;7.70;99.90;;;;;;5034348;28;20053;-81
2023/05/29 03:53:11;;;;;;;13.55;2.17;;;7.70;99.90;;;;;;5032048;28;20033;-80
2023/05/29 03:55:37;;;;;;;12.60;2.17;;;7.70;99.90;;;;;;5030566;28;20075;-80
2023/05/29 03:58:03;;;;;;;16.20;3.22;;;7.80;99.90;;;;;;5030895;28;20564;-80
2023/05/29 04:00:28;;;;;;;19.67;2.45;;;7.80;99.90;;;;;;5031461;28;20056;-79
2023/05/29 04:02:55;;;;;;;10.98;2.15;;;7.80;99.90;;;;;;5028275;28;20393;-81
2023/05/29 04:05:21;;;;;;;9.65;2.17;;;7.90;99.90;;;;;;5043564;28;20339;-80
2023/05/29 04:07:47;;;;;;;11.13;1.95;;;7.90;99.90;;;;;;5030887;28;20147;-81
2023/05/29 04:10:12;;;;;;;14.00;2.40;;;7.90;99.90;;;;;;5031267;28;20061;-81
2023/05/29 04:12:38;;;;;;;15.48;2.85;;;8.00;99.90;;;;;;5029446;28;20132;-80
2023/05/29 04:15:05;;;;;;;11.23;2.28;;;8.10;99.90;;;;;;5024988;28;20049;-80
2023/05/29 04:17:30;;;;;;;14.50;3.33;;;8.20;99.90;;;;;;5029283;28;20048;-80
2023/05/29 04:19:56;;;;;;;19.10;2.88;;;8.30;99.90;;;;;;5031364;28;20042;-80
2023/05/29 04:22:22;;;;;;;11.55;2.10;;;8.40;99.90;;;;;;5028910;28;20080;-80
2023/05/29 04:24:47;;;;;;;14.00;2.05;;;8.50;99.90;;;;;;5035420;28;20068;-80
2023/05/29 04:27:13;;;;;;;16.90;3.10;;;8.60;99.90;;;;;;5033684;28;20049;-80
2023/05/29 04:29:42;;;;;;;11.88;2.22;;;8.70;99.90;;;;;;5037417;28;20160;-80
2023/05/29 04:32:11;;;;;;;15.05;1.85;;;8.90;99.90;;;;;;5030474;28;20122;-79
2023/05/29 04:34:38;;;;;;;13.30;3.15;;;9.00;99.90;;;;;;5029589;28;20121;-81
2023/05/29 04:37:05;;;;;;;8.70;1.85;;;9.20;99.90;;;;;;5035042;28;20041;-80
2023/05/29 04:39:31;;;;;;;13.05;2.60;;;9.40;99.90;;;;;;5034148;28;20072;-81
2023/05/29 04:42:00;;;;;;;12.07;3.30;;;9.50;99.90;;;;;;5032746;28;20033;-81
2023/05/29 04:44:26;;;;;;;12.60;1.75;;;9.70;99.90;;;;;;5041558;28;20068;-81
2023/05/29 04:46:52;;;;;;;13.73;2.47;;;9.90;99.90;;;;;;5033721;28;20049;-80
2023/05/29 04:49:18;;;;;;;12.55;2.30;;;10.00;99.90;;;;;;5033498;28;20047;-81
2023/05/29 04:51:44;;;;;;;15.75;2.28;;;10.20;99.90;;;;;;5031433;28;20057;-81
2023/05/29 04:54:11;;;;;;;17.17;2.67;;;10.30;99.90;;;;;;5032719;28;20388;-81
2023/05/29 04:56:37;;;;;;;10.15;2.10;;;10.40;99.90;;;;;;5034460;28;20052;-81
2023/05/29 04:59:03;;;;;;;9.23;2.00;;;10.50;99.90;;;;;;5035029;28;20029;-80
2023/05/29 05:01:28;;;;;;;14.23;1.60;;;10.60;99.90;;;;;;5032545;28;20503;-81
2023/05/29 05:03:55;;;;;;;12.15;1.90;;;10.60;99.90;;;;;;5033455;28;20032;-80
2023/05/29 05:06:22;;;;;;;13.23;2.20;;;10.70;99.90;;;;;;5036112;28;20093;-79
2023/05/29 05:08:47;;;;;;;20.23;3.60;;;10.80;99.90;;;;;;5034380;28;20072;-81
2023/05/29 05:11:14;;;;;;;10.60;2.45;;;10.90;99.90;;;;;;5032908;28;20148;-80
2023/05/29 05:13:39;;;;;;;17.50;2.70;;;11.00;99.90;;;;;;5032974;28;20048;-80
2023/05/29 05:16:05;;;;;;;12.65;2.97;;;11.40;99.90;;;;;;5032443;28;20041;-80
2023/05/29 05:18:31;;;;;;;16.23;3.58;;;11.80;99.90;;;;;;5029028;28;20183;-81
2023/05/29 05:20:56;;;;;;;9.63;2.28;;;12.60;99.90;;;;;;5033891;28;20033;-81
2023/05/29 05:23:22;;;;;;;16.55;3.50;;;13.30;99.90;;;;;;5032705;28;20123;-81
2023/05/29 05:25:48;;;;;;;8.25;1.85;;;14.00;99.90;;;;;;5035133;28;20117;-79
2023/05/29 05:28:13;;;;;;;12.10;2.97;;;14.40;99.90;;;;;;5031584;28;20475;-81
2023/05/29 05:30:39;;;;;;;10.45;1.90;;;15.00;99.90;;;;;;5031968;28;20041;-81
2023/05/29 05:33:04;;;;;;;9.38;1.92;;;15.30;99.90;;;;;;5032007;28;20116;-81
2023/05/29 05:35:30;;;;;;;14.73;2.40;;;15.60;99.90;;;;;;5034336;28;20099;-81
2023/05/29 05:37:57;;;;;;;13.43;2.70;;;15.70;99.90;;;;;;5035698;28;20033;-81
2023/05/29 05:40:25;;;;;;;10.15;2.17;;;15.70;99.90;;;;;;5031009;28;20037;-80
2023/05/29 05:42:51;;;;;;;13.30;2.15;;;15.60;99.90;;;;;;5030052;28;20045;-82
2023/05/29 05:45:19;;;;;;;9.50;2.30;;;15.60;99.90;;;;;;5029070;28;20099;-82
2023/05/29 05:47:46;;;;;;;12.32;2.08;;;15.60;99.90;;;;;;5030903;28;20551;-80
2023/05/29 05:50:11;;;;;;;15.13;2.20;;;15.60;99.90;;;;;;5034118;28;20037;-82
2023/05/29 05:52:37;;;;;;;13.30;2.40;;;15.60;99.90;;;;;;5034227;28;20045;-80
2023/05/29 05:55:03;;;;;;;11.18;2.33;;;15.80;99.90;;;;;;5034589;28;20041;-81
2023/05/29 05:57:29;;;;;;;16.77;2.40;;;16.00;99.90;;;;;;5030685;28;20041;-82
2023/05/29 05:59:55;;;;;;;11.13;2.20;;;15.90;99.90;;;;;;5030042;28;20087;-80
2023/05/29 06:02:21;;;;;;;15.82;3.65;;;16.00;99.90;;;;;;5026352;28;20776;-78
2023/05/29 06:04:46;;;;;;;16.00;3.13;;;16.00;99.90;;;;;;5030707;28;20526;-79
2023/05/29 06:07:12;;;;;;;14.02;2.65;;;16.00;99.90;;;;;;5032731;28;20504;-79
2023/05/29 06:09:37;;;;;;;11.35;2.70;;;15.90;99.90;;;;;;5028038;28;20099;-80
2023/05/29 06:12:03;;;;;;;19.60;2.75;;;15.90;99.90;;;;;;5030000;28;20052;-81
2023/05/29 06:14:29;;;;;;;11.23;2.75;;;15.80;99.90;;;;;;5030072;28;20041;-81
2023/05/29 06:16:56;;;;;;;12.45;2.63;;;15.80;99.90;;;;;;5029829;28;20042;-80
2023/05/29 06:19:21;;;;;;;9.13;1.60;;;15.70;99.90;;;;;;5028112;28;20033;-81
2023/05/29 06:21:47;;;;;;;9.25;1.98;;;15.50;99.90;;;;;;5028905;28;20044;-81
2023/05/29 06:24:12;;;;;;;9.93;2.35;;;15.30;99.90;;;;;;5033307;28;20045;-81
2023/05/29 06:26:39;;;;;;;17.25;2.90;;;15.30;99.90;;;;;;5032917;28;20038;-79
2023/05/29 06:29:06;;;;;;;12.25;2.25;;;15.20;99.90;;;;;;5025455;28;20076;-79
2023/05/29 06:31:33;;;;;;;19.75;3.95;;;15.00;99.90;;;;;;5028406;28;20041;-80
2023/05/29 06:33:58;;;;;;;12.10;2.70;;;14.90;99.90;;;;;;5031595;28;20052;-80
2023/05/29 06:36:24;;;;;;;12.77;2.78;;;14.70;99.90;;;;;;5029421;28;20033;-80
2023/05/29 06:38:53;;;;;;;11.65;2.90;;;14.70;99.90;;;;;;5029142;28;20049;-80
2023/05/29 06:41:18;;;;;;;11.70;2.90;;;14.90;99.90;;;;;;5030780;28;20044;-81
2023/05/29 06:43:44;;;;;;;8.98;2.15;;;15.00;99.90;;;;;;5031731;28;20049;-80
2023/05/29 06:46:10;;;;;;;14.18;4.10;;;15.30;99.90;;;;;;5030017;28;20140;-78
2023/05/29 06:48:37;;;;;;;16.13;2.88;;;15.30;99.90;;;;;;5032402;28;20148;-80
2023/05/29 06:51:08;;;;;;;17.67;2.72;;;15.20;99.90;;;;;;5025957;28;20048;-81
2023/05/29 06:53:37;;;;;;;16.33;3.45;;;15.00;99.90;;;;;;5029124;28;20132;-80
2023/05/29 06:56:04;;;;;;;12.75;2.30;;;14.90;99.90;;;;;;5027043;28;20110;-80
2023/05/29 06:58:31;;;;;;;21.25;4.63;;;14.90;99.90;;;;;;5022442;28;20526;-81
2023/05/29 07:00:57;;;;;;;12.55;2.50;;;14.80;99.90;;;;;;5029669;28;20045;-77
2023/05/29 07:03:22;;;;;;;17.73;3.35;;;14.80;99.90;;;;;;5028172;28;20038;-81
2023/05/29 07:05:48;;;;;;;15.68;3.33;;;14.80;99.90;;;;;;5043046;28;20052;-80
2023/05/29 07:08:13;;;;;;;12.00;2.40;;;14.80;99.90;;;;;;5032560;28;20041;-80
2023/05/29 07:10:39;;;;;;;16.23;3.70;;;14.90;99.90;;;;;;5032700;28;20045;-81
2023/05/29 07:13:06;;;;;;;15.20;2.47;;;15.00;99.90;;;;;;5032552;28;20052;-80
2023/05/29 07:15:32;;;;;;;12.15;2.63;;;15.00;99.90;;;;;;5031167;28;20056;-81
2023/05/29 07:17:57;;;;;;;13.02;3.15;;;15.30;99.90;;;;;;5032615;28;20037;-81
2023/05/29 07:20:23;;;;;;;14.13;3.95;;;15.50;99.90;;;;;;5033021;28;20037;-81
2023/05/29 07:22:48;;;;;;;10.85;2.70;;;15.50;99.90;;;;;;5029604;28;20656;-79
2023/05/29 07:25:14;;;;;;;20.40;3.63;;;15.60;99.90;;;;;;5031612;28;20043;-81
2023/05/29 07:27:40;;;;;;;16.92;3.13;;;15.60;99.90;;;;;;5031353;28;20041;-80
2023/05/29 07:30:06;;;;;;;13.35;2.50;;;15.70;99.90;;;;;;5032528;28;20041;-80
2023/05/29 07:32:32;;;;;;;14.15;2.67;;;15.70;99.90;;;;;;5031416;28;20041;-80
2023/05/29 07:34:58;;;;;;;13.32;2.65;;;15.50;99.90;;;;;;5027668;28;20105;-81
2023/05/29 07:37:23;;;;;;;16.95;2.78;;;15.50;99.90;;;;;;5031935;28;20067;-80
2023/05/29 07:39:49;;;;;;;13.98;2.80;;;15.60;99.90;;;;;;5032190;28;20033;-81
2023/05/29 07:42:14;;;;;;;16.40;3.33;;;15.70;99.90;;;;;;5030794;28;20121;-81
2023/05/29 07:44:43;;;;;;;17.15;3.90;;;15.70;99.90;;;;;;5027081;28;20170;-80
2023/05/29 07:47:09;;;;;;;17.52;3.55;;;15.80;99.90;;;;;;5029881;28;20133;-80
2023/05/29 07:49:35;;;;;;;13.80;2.85;;;15.80;99.90;;;;;;5026713;28;20120;-81
2023/05/29 07:52:01;;;;;;;15.40;3.42;;;15.80;99.90;;;;;;5029146;28;20056;-79
2023/05/29 07:54:27;;;;;;;17.63;3.67;;;15.70;99.90;;;;;;5026657;28;20064;-80
2023/05/29 07:56:53;;;;;;;16.48;3.60;;;15.60;99.90;;;;;;5025209;28;20055;-79
2023/05/29 07:59:18;;;;;;;14.82;3.08;;;15.70;99.90;;;;;;5031413;28;20037;-80
2023/05/29 08:01:44;;;;;;;23.52;3.97;;;15.80;99.90;;;;;;5032609;28;20041;-81
2023/05/29 08:04:10;;;;;;;11.75;3.35;;;15.90;99.90;;;;;;5031750;28;20047;-80
2023/05/29 08:06:36;;;;;;;18.98;4.03;;;16.10;99.90;;;;;;5012755;28;20502;-80
2023/05/29 08:09:02;;;;;;;11.63;2.80;;;16.20;99.90;;;;;;5030853;28;20635;-80
2023/05/29 08:11:28;;;;;;;17.63;3.65;;;16.20;99.90;;;;;;5033351;28;20045;-79
2023/05/29 08:13:54;;;;;;;18.25;3.75;;;16.10;99.90;;;;;;5028798;28;20140;-80
2023/05/29 08:16:22;;;;;;;18.05;3.10;;;16.10;99.90;;;;;;5032568;28;20136;-79
2023/05/29 08:18:47;;;;;;;11.82;3.00;;;16.20;99.90;;;;;;5029692;28;20045;-80
2023/05/29 08:21:13;;;;;;;14.55;2.70;;;16.20;99.90;;;;;;5028860;28;20041;-80
2023/05/29 08:23:39;;;;;;;15.70;3.35;;;16.30;99.90;;;;;;5029021;28;20049;-79
2023/05/29 08:26:04;;;;;;;12.38;3.92;;;16.40;99.90;;;;;;5029021;28;20404;-79
2023/05/29 08:28:30;;;;;;;13.88;3.67;;;16.40;99.90;;;;;;5028976;28;20499;-77
2023/05/29 08:30:55;;;;;;;13.45;3.20;;;16.50;99.90;;;;;;5026463;28;20041;-78
2023/05/29 08:33:21;;;;;;;18.48;2.92;;;16.20;99.90;;;;;;5028434;28;20045;-77
2023/05/29 08:35:47;;;;;;;19.15;3.22;;;16.10;99.90;;;;;;5028964;28;20041;-78
2023/05/29 08:38:12;;;;;;;19.23;4.13;;;16.10;99.90;;;;;;5029507;28;20041;-78
2023/05/29 08:40:38;;;;;;;19.08;3.30;;;16.00;99.90;;;;;;5028032;28;20096;-78
2023/05/29 08:43:31;;;;;;;19.10;3.80;;;16.10;99.90;;;;;;5028735;28;20098;-77
2023/05/29 08:46:02;;;;;;;16.35;3.88;;;16.10;99.90;;;;;;5028712;28;20171;-78
2023/05/29 08:48:29;;;;;;;19.48;3.88;;;16.10;99.90;;;;;;5030589;28;20052;-76
2023/05/29 08:50:56;;;;;;;16.88;3.17;;;16.40;99.90;;;;;;5030552;28;20045;-80
2023/05/29 08:53:23;;;;;;;18.65;3.65;;;16.40;99.90;;;;;;5010952;28;20038;-78
2023/05/29 08:55:51;;;;;;;13.07;3.53;;;16.40;99.90;;;;;;5026846;28;20046;-79
2023/05/29 08:58:17;;;;;;;14.32;3.90;;;16.30;99.90;;;;;;5028981;28;20041;-78
2023/05/29 09:00:46;;;;;;;15.05;3.03;;;16.10;99.90;;;;;;5029130;28;20046;-80
2023/05/29 09:03:12;;;;;;;25.25;4.50;;;16.00;99.90;;;;;;5031490;28;20494;-79
2023/05/29 09:05:40;;;;;;;14.43;3.38;;;15.90;99.90;;;;;;5030343;28;20042;-78
2023/05/29 09:08:07;;;;;;;14.50;3.08;;;16.00;99.90;;;;;;5026378;28;20507;-79
2023/05/29 09:10:33;;;;;;;14.75;3.38;;;16.00;99.90;;;;;;5027767;28;20042;-78
2023/05/29 09:12:59;;;;;;;17.65;3.35;;;16.10;99.90;;;;;;5026970;28;20043;-78
2023/05/29 09:15:24;;;;;;;23.63;3.95;;;16.10;99.90;;;;;;5028033;28;20080;-80
2023/05/29 09:17:51;;;;;;;16.85;3.67;;;16.00;99.90;;;;;;5028287;28;20057;-80
2023/05/29 09:20:18;;;;;;;16.42;4.55;;;16.00;99.90;;;;;;5025974;28;20041;-80
2023/05/29 09:22:53;;;;;;;23.35;3.65;;;15.90;99.90;;;;;;5026289;28;20248;-78
2023/05/29 09:25:22;;;;;;;17.15;3.50;;;15.80;99.90;;;;;;5026366;28;20053;-79
2023/05/29 09:27:52;;;;;;;12.30;3.20;;;15.80;99.90;;;;;;5023029;28;20049;-79
2023/05/29 09:30:38;;;;;;;14.32;3.55;;;15.90;99.90;;;;;;5024418;28;20065;-79
2023/05/29 09:33:06;;;;;;;15.75;3.47;;;16.00;99.90;;;;;;5026427;28;20053;-77
2023/05/29 09:35:33;;;;;;;24.52;4.15;;;16.20;99.90;;;;;;5027143;28;20048;-77
2023/05/29 09:37:59;;;;;;;31.35;3.88;;;16.30;99.90;;;;;;5026785;28;20152;-78
2023/05/29 09:40:25;;;;;;;33.80;5.18;;;16.40;99.90;;;;;;5025985;28;20116;-77
2023/05/29 09:42:50;;;;;;;17.98;3.28;;;16.70;99.90;;;;;;5024164;28;20057;-77
2023/05/29 09:45:21;;;;;;;17.05;3.08;;;16.60;99.90;;;;;;5023035;28;20132;-78
2023/05/29 09:47:48;;;;;;;27.70;3.30;;;16.40;99.90;;;;;;5022043;28;20068;-78
2023/05/29 09:50:20;;;;;;;17.38;3.05;;;16.30;99.90;;;;;;5028879;28;20043;-78
2023/05/29 09:52:46;;;;;;;14.75;2.88;;;16.10;99.90;;;;;;5029264;28;20575;-80
2023/05/29 09:55:17;;;;;;;17.38;3.33;;;16.10;99.90;;;;;;5025708;28;20061;-79
2023/05/29 09:57:46;;;;;;;19.27;3.90;;;16.10;99.90;;;;;;5026179;28;20033;-79
2023/05/29 10:00:13;;;;;;;13.80;3.30;;;16.20;99.90;;;;;;5027355;28;20053;-79
2023/05/29 10:02:40;;;;;;;16.90;3.15;;;16.40;99.90;;;;;;5027004;28;20037;-78
2023/05/29 10:05:08;;;;;;;21.08;4.95;;;16.50;99.90;;;;;;5023528;28;20049;-80
2023/05/29 10:07:36;;;;;;;13.23;2.88;;;16.50;99.90;;;;;;5020369;28;20054;-79
2023/05/29 10:10:05;;;;;;;17.10;2.88;;;16.40;99.90;;;;;;5028343;28;20053;-77
2023/05/29 10:12:38;;;;;;;13.00;3.03;;;16.50;99.90;;;;;;5015703;28;20496;-76
2023/05/29 10:15:11;;;;;;;12.07;2.53;;;16.50;99.90;;;;;;5022950;28;20407;-79
2023/05/29 10:17:38;;;;;;;15.90;3.33;;;16.50;99.90;;;;;;5028632;28;20056;-79
2023/05/29 10:20:09;;;;;;;17.40;3.40;;;16.40;99.90;;;;;;5016982;28;20069;-77
2023/05/29 10:22:41;;;;;;;11.65;2.58;;;16.50;99.90;;;;;;5016463;28;20499;-79
2023/05/29 10:25:10;;;;;;;18.98;3.22;;;16.70;99.90;;;;;;5018634;28;20053;-78
2023/05/29 10:27:36;;;;;;;20.63;3.17;;;16.80;99.90;;;;;;5024149;28;20048;-79
2023/05/29 10:30:09;;;;;;;12.48;3.65;;;16.90;99.90;;;;;;5027618;28;20037;-78
2023/05/29 10:33:10;;;;;;;14.35;2.78;;;17.00;99.90;;;;;;5021759;28;20084;-78
2023/05/29 10:35:46;;;;;;;11.73;3.58;;;17.30;99.90;;;;;;5019734;28;20064;-80
2023/05/29 10:38:19;;;;;;;15.45;3.95;;;17.30;99.90;;;;;;5023370;28;20041;-79
2023/05/29 10:40:45;;;;;;;16.92;4.15;;;17.30;99.90;;;;;;5025662;28;20037;-78
2023/05/29 10:43:42;;;;;;;13.02;3.50;;;17.10;99.90;;;;;;5021292;28;20063;-79
2023/05/29 10:46:07;;;;;;;16.77;3.03;;;16.90;99.90;;;;;;5009241;28;20057;-81
2023/05/29 10:48:37;;;;;;;14.00;3.10;;;16.70;99.90;;;;;;5024424;28;20045;-80
2023/05/29 10:51:07;;;;;;;14.70;4.50;;;16.70;99.90;;;;;;5025793;28;20033;-79
2023/05/29 10:53:40;;;;;;;15.73;3.25;;;16.90;99.90;;;;;;5023650;28;20033;-80
2023/05/29 10:56:08;;;;;;;18.50;3.88;;;17.10;99.90;;;;;;5026566;28;20128;-80
2023/05/29 10:58:34;;;;;;;12.65;2.97;;;17.40;99.90;;;;;;5024400;28;20046;-79
2023/05/29 11:01:00;;;;;;;19.25;3.42;;;17.50;99.90;;;;;;5025856;28;20506;-79
2023/05/29 11:03:31;;;;;;;11.60;2.45;;;17.50;99.90;;;;;;5002742;28;20068;-79
2023/05/29 11:06:10;;;;;;;14.18;2.83;;;17.50;99.90;;;;;;5023870;28;20045;-78
2023/05/29 11:08:56;;;;;;;12.93;3.33;;;17.40;99.90;;;;;;5024736;28;20041;-78
2023/05/29 11:11:28;;;;;;;13.63;3.30;;;17.40;99.90;;;;;;5025005;28;20120;-78
2023/05/29 11:13:55;;;;;;;16.58;3.58;;;17.40;99.90;;;;;;5025726;28;20509;-78
2023/05/29 11:16:29;;;;;;;13.27;3.35;;;17.30;99.90;;;;;;5026481;28;20037;-79
2023/05/29 11:18:57;;;;;;;13.55;2.85;;;17.40;99.90;;;;;;5025574;28;20131;-79
2023/05/29 11:21:56;;;;;;;20.50;3.10;;;17.40;99.90;;;;;;5024226;28;20061;-78
2023/05/29 11:24:24;;;;;;;12.88;3.28;;;17.50;99.90;;;;;;5036458;28;20052;-79
2023/05/29 11:26:52;;;;;;;16.13;3.13;;;17.70;99.90;;;;;;5024285;28;20136;-79
2023/05/29 11:29:26;;;;;;;16.52;4.18;;;18.00;99.90;;;;;;5023469;28;20439;-77
2023/05/29 11:31:58;;;;;;;12.60;3.33;;;18.20;99.90;;;;;;5025815;28;20045;-79
2023/05/29 11:34:27;;;;;;;20.23;3.33;;;18.10;99.90;;;;;;5028847;28;20583;-78
2023/05/29 11:36:53;;;;;;;15.55;3.17;;;18.20;99.90;;;;;;5026649;28;20052;-78
2023/05/29 11:39:19;;;;;;;13.98;2.53;;;18.00;99.90;;;;;;5027166;28;20042;-79
2023/05/29 11:41:51;;;;;;;13.60;2.60;;;17.80;99.70;;;;;;5028309;28;20045;-79
2023/05/29 11:44:16;;;;;;;8.57;2.80;;;17.70;99.60;;;;;;5023241;28;20049;-78
2023/05/29 11:46:42;;;;;;;13.30;3.00;;;17.60;99.70;;;;;;5021915;28;20045;-79
2023/05/29 11:49:07;;;;;;;13.73;3.47;;;17.50;99.90;;;;;;5020966;28;20049;-79
2023/05/29 11:51:33;;;;;;;15.45;3.25;;;17.60;99.90;;;;;;5029295;28;20041;-81
2023/05/29 11:53:59;;;;;;;10.38;2.72;;;17.40;99.90;;;;;;5027292;28;20128;-80
2023/05/29 11:56:29;;;;;;;12.95;2.97;;;17.20;99.90;;;;;;5018649;28;20459;-80
2023/05/29 11:58:56;;;;;;;14.50;3.30;;;17.10;99.90;;;;;;5022122;28;20122;-81
2023/05/29 12:01:23;;;;;;;10.15;2.33;;;16.90;99.90;;;;;;5023255;28;20048;-82
2023/05/29 12:03:49;;;;;;;17.90;3.20;;;16.90;99.90;;;;;;5023946;28;20045;-80
2023/05/29 12:06:15;;;;;;;14.90;3.13;;;16.70;99.90;;;;;;5023514;28;20517;-83
2023/05/29 12:08:41;;;;;;;13.70;2.85;;;16.90;99.90;;;;;;5021434;28;20051;-79
2023/05/29 12:11:07;;;;;;;17.67;3.78;;;17.00;99.90;;;;;;5021582;28;20037;-82
2023/05/29 12:13:33;;;;;;;15.82;4.40;;;17.20;99.90;;;;;;5025207;28;20045;-81
2023/05/29 12:16:05;;;;;;;15.13;3.85;;;17.50;99.90;;;;;;5036374;28;20461;-81
2023/05/29 12:18:31;;;;;;;14.57;3.63;;;17.60;99.90;;;;;;5023283;28;20061;-78
2023/05/29 12:20:58;;;;;;;14.65;3.30;;;17.60;99.90;;;;;;5023744;28;20060;-81
2023/05/29 12:23:24;;;;;;;10.55;2.55;;;17.80;99.90;;;;;;5020985;28;20041;-81
2023/05/29 12:25:53;;;;;;;8.25;2.10;;;17.90;99.40;;;;;;5024564;28;20045;-81
2023/05/29 12:28:18;;;;;;;13.65;3.08;;;17.80;99.10;;;;;;5005431;28;20045;-81
2023/05/29 12:30:49;;;;;;;11.30;2.35;;;17.70;99.00;;;;;;5031320;28;20052;-82
2023/05/29 12:33:33;;;;;;;13.02;2.72;;;17.50;99.30;;;;;;5034520;28;20099;-81
2023/05/29 12:36:08;;;;;;;13.50;2.95;;;17.30;99.50;;;;;;5033390;28;20408;-81
2023/05/29 12:38:46;;;;;;;17.38;4.28;;;17.30;99.90;;;;;;5033518;28;20499;-81
2023/05/29 12:41:26;;;;;;;19.15;3.22;;;17.50;99.90;;;;;;5031625;28;20052;-81
2023/05/29 12:43:54;;;;;;;11.38;2.40;;;17.60;99.90;;;;;;5034175;28;20124;-81